sensor_id;sensor_type;location;lat;lon;timestamp;temperature;humidity
52919;DHT22;38793;52.690;6.812;2023-05-09T00:01:11;16.00;99.90
52919;DHT22;38793;52.690;6.812;2023-05-09T00:03:40;15.90;99.90
52919;DHT22;38793;52.690;6.812;2023-05-09T00:06:07;15.90;99.90
52919;DHT22;38793;52.690;6.812;2023-05-09T00:08:33;15.90;99.90
52919;DHT22;38793;52.690;6.812;2023-05-09T00:11:01;15.80;99.90
52919;DHT22;38793;52.690;6.812;2023-05-09T00:13:26;15.80;99.90
52919;DHT22;38793;52.690;6.812;2023-05-09T00:15:53;15.70;99.90
52919;DHT22;38793;52.690;6.812;2023-05-09T00:18:19;15.70;99.90
52919;DHT22;38793;52.690;6.812;2023-05-09T00:20:46;15.70;99.90
52919;DHT22;38793;52.690;6.812;2023-05-09T00:23:12;15.70;99.90
52919;DHT22;38793;52.690;6.812;2023-05-09T00:25:38;15.70;99.90
52919;DHT22;38793;52.690;6.812;2023-05-09T00:28:03;15.70;99.90
52919;DHT22;38793;52.690;6.812;2023-05-09T00:30:30;15.70;99.90
52919;DHT22;38793;52.690;6.812;2023-05-09T00:32:55;15.70;99.90
52919;DHT22;38793;52.690;6.812;2023-05-09T00:35:21;15.60;99.90
52919;DHT22;38793;52.690;6.812;2023-05-09T00:37:46;15.50;99.90
52919;DHT22;38793;52.690;6.812;2023-05-09T00:40:12;15.50;99.90
52919;DHT22;38793;52.690;6.812;2023-05-09T00:42:38;15.50;99.90
52919;DHT22;38793;52.690;6.812;2023-05-09T00:45:04;15.50;99.90
52919;DHT22;38793;52.690;6.812;2023-05-09T00:47:30;15.50;99.90
52919;DHT22;38793;52.690;6.812;2023-05-09T00:49:56;15.50;99.90
52919;DHT22;38793;52.690;6.812;2023-05-09T00:52:24;15.50;99.90
52919;DHT22;38793;52.690;6.812;2023-05-09T00:54:54;15.40;99.90
52919;DHT22;38793;52.690;6.812;2023-05-09T00:57:20;15.40;99.90
52919;DHT22;38793;52.690;6.812;2023-05-09T00:59:46;15.40;99.90
52919;DHT22;38793;52.690;6.812;2023-05-09T01:02:12;15.30;99.90
52919;DHT22;38793;52.690;6.812;2023-05-09T01:04:38;15.40;99.90
52919;DHT22;38793;52.690;6.812;2023-05-09T01:12:40;15.30;99.90
52919;DHT22;38793;52.690;6.812;2023-05-09T01:17:52;15.30;99.90
52919;DHT22;38793;52.690;6.812;2023-05-09T01:31:25;15.10;99.90
52919;DHT22;38793;52.690;6.812;2023-05-09T01:33:55;15.10;99.90
52919;DHT22;38793;52.690;6.812;2023-05-09T01:36:23;15.10;99.90
52919;DHT22;38793;52.690;6.812;2023-05-09T01:38:54;15.10;99.90
52919;DHT22;38793;52.690;6.812;2023-05-09T01:41:22;15.10;99.90
52919;DHT22;38793;52.690;6.812;2023-05-09T01:43:49;15.10;99.90
52919;DHT22;38793;52.690;6.812;2023-05-09T01:46:17;15.10;99.90
52919;DHT22;38793;52.690;6.812;2023-05-09T01:48:44;15.00;99.90
52919;DHT22;38793;52.690;6.812;2023-05-09T01:51:12;15.00;99.90
52919;DHT22;38793;52.690;6.812;2023-05-09T01:53:39;15.00;99.90
52919;DHT22;38793;52.690;6.812;2023-05-09T01:56:07;15.00;99.90
52919;DHT22;38793;52.690;6.812;2023-05-09T01:58:36;14.90;99.90
52919;DHT22;38793;52.690;6.812;2023-05-09T02:01:02;15.00;99.90
52919;DHT22;38793;52.690;6.812;2023-05-09T02:03:30;14.90;99.90
52919;DHT22;38793;52.690;6.812;2023-05-09T02:05:58;14.90;99.90
52919;DHT22;38793;52.690;6.812;2023-05-09T02:08:25;14.90;99.90
52919;DHT22;38793;52.690;6.812;2023-05-09T02:10:52;14.80;99.90
52919;DHT22;38793;52.690;6.812;2023-05-09T02:13:17;14.80;99.90
52919;DHT22;38793;52.690;6.812;2023-05-09T02:15:43;14.80;99.90
52919;DHT22;38793;52.690;6.812;2023-05-09T02:18:09;14.90;99.90
52919;DHT22;38793;52.690;6.812;2023-05-09T02:20:35;14.90;99.90
52919;DHT22;38793;52.690;6.812;2023-05-09T02:23:01;14.90;99.90
52919;DHT22;38793;52.690;6.812;2023-05-09T02:25:27;14.80;99.90
52919;DHT22;38793;52.690;6.812;2023-05-09T02:27:54;14.80;99.90
52919;DHT22;38793;52.690;6.812;2023-05-09T02:30:23;14.80;99.90
52919;DHT22;38793;52.690;6.812;2023-05-09T02:32:56;14.80;99.90
52919;DHT22;38793;52.690;6.812;2023-05-09T02:35:25;14.70;99.90
52919;DHT22;38793;52.690;6.812;2023-05-09T02:37:52;14.70;99.90
52919;DHT22;38793;52.690;6.812;2023-05-09T02:40:18;14.70;99.90
52919;DHT22;38793;52.690;6.812;2023-05-09T02:42:45;14.70;99.90
52919;DHT22;38793;52.690;6.812;2023-05-09T02:45:10;14.60;99.90
52919;DHT22;38793;52.690;6.812;2023-05-09T02:47:37;14.60;99.90
52919;DHT22;38793;52.690;6.812;2023-05-09T02:50:03;14.60;99.90
52919;DHT22;38793;52.690;6.812;2023-05-09T02:52:29;14.60;99.90
52919;DHT22;38793;52.690;6.812;2023-05-09T02:54:55;14.60;99.90
52919;DHT22;38793;52.690;6.812;2023-05-09T02:57:21;14.60;99.90
52919;DHT22;38793;52.690;6.812;2023-05-09T02:59:47;14.60;99.90
52919;DHT22;38793;52.690;6.812;2023-05-09T03:02:12;14.60;99.90
52919;DHT22;38793;52.690;6.812;2023-05-09T03:04:38;14.60;99.90
52919;DHT22;38793;52.690;6.812;2023-05-09T03:07:04;14.50;99.90
52919;DHT22;38793;52.690;6.812;2023-05-09T03:09:29;14.60;99.90
52919;DHT22;38793;52.690;6.812;2023-05-09T03:11:55;14.50;99.90
52919;DHT22;38793;52.690;6.812;2023-05-09T03:14:21;14.50;99.90
52919;DHT22;38793;52.690;6.812;2023-05-09T03:16:47;14.50;99.90
52919;DHT22;38793;52.690;6.812;2023-05-09T03:19:12;14.50;99.90
52919;DHT22;38793;52.690;6.812;2023-05-09T03:21:38;14.50;99.90
52919;DHT22;38793;52.690;6.812;2023-05-09T03:24:05;14.50;99.90
52919;DHT22;38793;52.690;6.812;2023-05-09T03:26:31;14.50;99.90
52919;DHT22;38793;52.690;6.812;2023-05-09T03:28:57;14.50;99.90
52919;DHT22;38793;52.690;6.812;2023-05-09T03:31:23;14.50;99.90
52919;DHT22;38793;52.690;6.812;2023-05-09T03:33:49;14.50;99.90
52919;DHT22;38793;52.690;6.812;2023-05-09T03:36:15;14.50;99.90
52919;DHT22;38793;52.690;6.812;2023-05-09T03:38:41;14.50;99.90
52919;DHT22;38793;52.690;6.812;2023-05-09T03:41:07;14.50;99.90
52919;DHT22;38793;52.690;6.812;2023-05-09T03:43:32;14.50;99.90
52919;DHT22;38793;52.690;6.812;2023-05-09T03:45:58;14.50;99.90
52919;DHT22;38793;52.690;6.812;2023-05-09T03:48:23;14.50;99.90
52919;DHT22;38793;52.690;6.812;2023-05-09T03:50:49;14.50;99.90
52919;DHT22;38793;52.690;6.812;2023-05-09T03:53:15;14.50;99.90
52919;DHT22;38793;52.690;6.812;2023-05-09T03:55:40;14.50;99.90
52919;DHT22;38793;52.690;6.812;2023-05-09T03:58:06;14.50;99.90
52919;DHT22;38793;52.690;6.812;2023-05-09T04:00:32;14.50;99.90
52919;DHT22;38793;52.690;6.812;2023-05-09T04:02:57;14.40;99.90
52919;DHT22;38793;52.690;6.812;2023-05-09T04:05:23;14.40;99.90
52919;DHT22;38793;52.690;6.812;2023-05-09T04:07:48;14.40;99.90
52919;DHT22;38793;52.690;6.812;2023-05-09T04:10:14;14.40;99.90
52919;DHT22;38793;52.690;6.812;2023-05-09T04:12:40;14.40;99.90
52919;DHT22;38793;52.690;6.812;2023-05-09T04:15:06;14.40;99.90
52919;DHT22;38793;52.690;6.812;2023-05-09T04:17:32;14.40;99.90
52919;DHT22;38793;52.690;6.812;2023-05-09T04:19:57;14.40;99.90
52919;DHT22;38793;52.690;6.812;2023-05-09T04:22:23;14.40;99.90
52919;DHT22;38793;52.690;6.812;2023-05-09T04:24:48;14.40;99.90
52919;DHT22;38793;52.690;6.812;2023-05-09T04:27:14;14.40;99.90
52919;DHT22;38793;52.690;6.812;2023-05-09T04:29:39;14.40;99.90
52919;DHT22;38793;52.690;6.812;2023-05-09T04:32:05;14.30;99.90
52919;DHT22;38793;52.690;6.812;2023-05-09T04:34:31;14.30;99.90
52919;DHT22;38793;52.690;6.812;2023-05-09T04:36:56;14.30;99.90
52919;DHT22;38793;52.690;6.812;2023-05-09T04:39:22;14.20;99.90
52919;DHT22;38793;52.690;6.812;2023-05-09T04:41:48;14.20;99.90
52919;DHT22;38793;52.690;6.812;2023-05-09T04:44:16;14.20;99.90
52919;DHT22;38793;52.690;6.812;2023-05-09T04:46:43;14.20;99.90
52919;DHT22;38793;52.690;6.812;2023-05-09T04:49:08;14.30;99.90
52919;DHT22;38793;52.690;6.812;2023-05-09T04:51:34;14.20;99.90
52919;DHT22;38793;52.690;6.812;2023-05-09T04:53:59;14.30;99.90
52919;DHT22;38793;52.690;6.812;2023-05-09T04:56:25;14.30;99.90
52919;DHT22;38793;52.690;6.812;2023-05-09T04:58:51;14.30;99.90
52919;DHT22;38793;52.690;6.812;2023-05-09T05:01:17;14.40;99.90
52919;DHT22;38793;52.690;6.812;2023-05-09T05:03:43;14.40;99.90
52919;DHT22;38793;52.690;6.812;2023-05-09T05:06:10;14.40;99.90
52919;DHT22;38793;52.690;6.812;2023-05-09T05:08:35;14.40;99.90
52919;DHT22;38793;52.690;6.812;2023-05-09T05:11:01;14.50;99.90
52919;DHT22;38793;52.690;6.812;2023-05-09T05:13:27;14.50;99.90
52919;DHT22;38793;52.690;6.812;2023-05-09T05:15:52;14.50;99.90
52919;DHT22;38793;52.690;6.812;2023-05-09T05:18:18;14.60;99.90
52919;DHT22;38793;52.690;6.812;2023-05-09T05:20:43;14.60;99.90
52919;DHT22;38793;52.690;6.812;2023-05-09T05:23:09;14.60;99.90
52919;DHT22;38793;52.690;6.812;2023-05-09T05:25:35;14.60;99.90
52919;DHT22;38793;52.690;6.812;2023-05-09T05:28:01;14.70;99.90
52919;DHT22;38793;52.690;6.812;2023-05-09T05:30:26;14.70;99.90
52919;DHT22;38793;52.690;6.812;2023-05-09T05:32:52;14.70;99.90
52919;DHT22;38793;52.690;6.812;2023-05-09T05:35:18;14.70;99.90
52919;DHT22;38793;52.690;6.812;2023-05-09T05:37:46;14.70;99.90
52919;DHT22;38793;52.690;6.812;2023-05-09T05:40:11;14.80;99.90
52919;DHT22;38793;52.690;6.812;2023-05-09T05:42:37;14.80;99.90
52919;DHT22;38793;52.690;6.812;2023-05-09T05:45:03;14.80;99.90
52919;DHT22;38793;52.690;6.812;2023-05-09T05:47:35;14.80;99.90
52919;DHT22;38793;52.690;6.812;2023-05-09T05:50:03;14.80;99.90
52919;DHT22;38793;52.690;6.812;2023-05-09T05:52:29;14.80;99.90
52919;DHT22;38793;52.690;6.812;2023-05-09T05:54:55;14.80;99.90
52919;DHT22;38793;52.690;6.812;2023-05-09T05:57:21;14.80;99.90
52919;DHT22;38793;52.690;6.812;2023-05-09T05:59:47;14.80;99.90
52919;DHT22;38793;52.690;6.812;2023-05-09T06:02:13;14.80;99.90
52919;DHT22;38793;52.690;6.812;2023-05-09T06:04:39;14.80;99.90
52919;DHT22;38793;52.690;6.812;2023-05-09T06:07:05;14.90;99.90
52919;DHT22;38793;52.690;6.812;2023-05-09T06:09:30;14.90;99.90
52919;DHT22;38793;52.690;6.812;2023-05-09T06:11:56;14.90;99.90
52919;DHT22;38793;52.690;6.812;2023-05-09T06:14:22;14.90;99.90
52919;DHT22;38793;52.690;6.812;2023-05-09T06:16:47;14.90;99.90
52919;DHT22;38793;52.690;6.812;2023-05-09T06:19:13;14.90;99.90
52919;DHT22;38793;52.690;6.812;2023-05-09T06:21:38;15.00;99.90
52919;DHT22;38793;52.690;6.812;2023-05-09T06:24:04;15.00;99.90
52919;DHT22;38793;52.690;6.812;2023-05-09T06:26:30;15.00;99.90
52919;DHT22;38793;52.690;6.812;2023-05-09T06:28:56;15.00;99.90
52919;DHT22;38793;52.690;6.812;2023-05-09T06:31:21;15.10;99.90
52919;DHT22;38793;52.690;6.812;2023-05-09T06:33:47;15.10;99.90
52919;DHT22;38793;52.690;6.812;2023-05-09T06:36:12;15.10;99.90
52919;DHT22;38793;52.690;6.812;2023-05-09T06:38:38;15.10;99.90
52919;DHT22;38793;52.690;6.812;2023-05-09T06:41:04;15.20;99.90
52919;DHT22;38793;52.690;6.812;2023-05-09T06:43:30;15.20;99.90
52919;DHT22;38793;52.690;6.812;2023-05-09T06:45:55;15.20;99.90
52919;DHT22;38793;52.690;6.812;2023-05-09T06:48:21;15.20;99.90
52919;DHT22;38793;52.690;6.812;2023-05-09T06:50:48;15.20;99.90
52919;DHT22;38793;52.690;6.812;2023-05-09T06:53:14;15.30;99.90
52919;DHT22;38793;52.690;6.812;2023-05-09T06:55:40;15.30;99.90
52919;DHT22;38793;52.690;6.812;2023-05-09T06:58:06;15.30;99.90
52919;DHT22;38793;52.690;6.812;2023-05-09T07:00:32;15.40;99.90
52919;DHT22;38793;52.690;6.812;2023-05-09T07:02:57;15.40;99.90
52919;DHT22;38793;52.690;6.812;2023-05-09T07:05:23;15.40;99.90
52919;DHT22;38793;52.690;6.812;2023-05-09T07:07:49;15.40;99.90
52919;DHT22;38793;52.690;6.812;2023-05-09T07:10:14;15.40;99.90
52919;DHT22;38793;52.690;6.812;2023-05-09T07:12:40;15.40;99.90
52919;DHT22;38793;52.690;6.812;2023-05-09T07:15:06;15.30;99.90
52919;DHT22;38793;52.690;6.812;2023-05-09T07:17:32;15.30;99.90
52919;DHT22;38793;52.690;6.812;2023-05-09T07:19:58;15.40;99.90
52919;DHT22;38793;52.690;6.812;2023-05-09T07:22:23;15.40;99.90
52919;DHT22;38793;52.690;6.812;2023-05-09T07:24:49;15.40;99.90
52919;DHT22;38793;52.690;6.812;2023-05-09T07:27:15;15.40;99.90
52919;DHT22;38793;52.690;6.812;2023-05-09T07:29:41;15.40;99.90
52919;DHT22;38793;52.690;6.812;2023-05-09T07:32:06;15.40;99.90
52919;DHT22;38793;52.690;6.812;2023-05-09T07:34:32;15.50;99.90
52919;DHT22;38793;52.690;6.812;2023-05-09T07:36:58;15.50;99.90
52919;DHT22;38793;52.690;6.812;2023-05-09T07:39:23;15.50;99.90
52919;DHT22;38793;52.690;6.812;2023-05-09T07:41:49;15.60;99.90
52919;DHT22;38793;52.690;6.812;2023-05-09T07:44:14;15.60;99.90
52919;DHT22;38793;52.690;6.812;2023-05-09T07:46:40;15.70;99.90
52919;DHT22;38793;52.690;6.812;2023-05-09T07:49:07;15.80;99.90
52919;DHT22;38793;52.690;6.812;2023-05-09T07:51:32;15.80;99.90
52919;DHT22;38793;52.690;6.812;2023-05-09T07:53:58;15.90;99.90
52919;DHT22;38793;52.690;6.812;2023-05-09T07:56:23;15.90;99.90
52919;DHT22;38793;52.690;6.812;2023-05-09T07:58:49;16.00;99.90
52919;DHT22;38793;52.690;6.812;2023-05-09T08:01:15;16.00;99.90
52919;DHT22;38793;52.690;6.812;2023-05-09T08:03:40;16.10;99.90
52919;DHT22;38793;52.690;6.812;2023-05-09T08:06:06;16.10;99.90
52919;DHT22;38793;52.690;6.812;2023-05-09T08:08:32;16.10;99.90
52919;DHT22;38793;52.690;6.812;2023-05-09T08:10:57;16.20;99.90
52919;DHT22;38793;52.690;6.812;2023-05-09T08:13:23;16.20;99.90
52919;DHT22;38793;52.690;6.812;2023-05-09T08:15:49;16.20;99.90
52919;DHT22;38793;52.690;6.812;2023-05-09T08:18:15;16.30;99.90
52919;DHT22;38793;52.690;6.812;2023-05-09T08:20:41;16.30;99.90
52919;DHT22;38793;52.690;6.812;2023-05-09T08:23:06;16.30;99.90
52919;DHT22;38793;52.690;6.812;2023-05-09T08:25:32;16.30;99.90
52919;DHT22;38793;52.690;6.812;2023-05-09T08:27:58;16.30;99.90
52919;DHT22;38793;52.690;6.812;2023-05-09T08:30:23;16.40;99.90
52919;DHT22;38793;52.690;6.812;2023-05-09T08:32:49;16.40;99.90
52919;DHT22;38793;52.690;6.812;2023-05-09T08:35:15;16.40;99.90
52919;DHT22;38793;52.690;6.812;2023-05-09T08:37:40;16.40;99.90
52919;DHT22;38793;52.690;6.812;2023-05-09T08:40:06;16.40;99.90
52919;DHT22;38793;52.690;6.812;2023-05-09T08:42:34;16.50;99.90
52919;DHT22;38793;52.690;6.812;2023-05-09T08:45:06;16.50;99.90
52919;DHT22;38793;52.690;6.812;2023-05-09T08:47:36;16.50;99.90
52919;DHT22;38793;52.690;6.812;2023-05-09T08:50:03;16.50;99.90
52919;DHT22;38793;52.690;6.812;2023-05-09T08:52:30;16.50;99.90
52919;DHT22;38793;52.690;6.812;2023-05-09T08:54:56;16.50;99.90
52919;DHT22;38793;52.690;6.812;2023-05-09T08:57:22;16.50;99.90
52919;DHT22;38793;52.690;6.812;2023-05-09T08:59:50;16.60;99.90
52919;DHT22;38793;52.690;6.812;2023-05-09T09:02:17;16.60;99.90
52919;DHT22;38793;52.690;6.812;2023-05-09T09:04:43;16.70;99.90
52919;DHT22;38793;52.690;6.812;2023-05-09T09:07:10;16.80;99.90
52919;DHT22;38793;52.690;6.812;2023-05-09T09:09:36;16.80;99.90
52919;DHT22;38793;52.690;6.812;2023-05-09T09:12:05;16.90;99.90
52919;DHT22;38793;52.690;6.812;2023-05-09T09:14:36;17.00;99.90
52919;DHT22;38793;52.690;6.812;2023-05-09T09:17:04;17.10;99.90
52919;DHT22;38793;52.690;6.812;2023-05-09T09:19:30;17.20;99.90
52919;DHT22;38793;52.690;6.812;2023-05-09T09:21:59;17.30;99.90
52919;DHT22;38793;52.690;6.812;2023-05-09T09:24:27;17.40;99.90
52919;DHT22;38793;52.690;6.812;2023-05-09T09:26:53;17.40;99.90
52919;DHT22;38793;52.690;6.812;2023-05-09T09:29:19;17.40;99.90
52919;DHT22;38793;52.690;6.812;2023-05-09T09:31:46;17.40;99.90
52919;DHT22;38793;52.690;6.812;2023-05-09T09:34:19;17.40;99.90
52919;DHT22;38793;52.690;6.812;2023-05-09T09:36:45;17.40;99.90
52919;DHT22;38793;52.690;6.812;2023-05-09T09:39:12;17.40;99.90
52919;DHT22;38793;52.690;6.812;2023-05-09T09:41:39;17.30;99.90
52919;DHT22;38793;52.690;6.812;2023-05-09T09:44:15;17.30;99.90
52919;DHT22;38793;52.690;6.812;2023-05-09T09:46:52;17.20;99.90
52919;DHT22;38793;52.690;6.812;2023-05-09T09:49:23;17.20;99.90
52919;DHT22;38793;52.690;6.812;2023-05-09T09:51:50;17.20;99.90
52919;DHT22;38793;52.690;6.812;2023-05-09T09:54:16;17.20;99.90
52919;DHT22;38793;52.690;6.812;2023-05-09T09:56:49;17.20;99.90
52919;DHT22;38793;52.690;6.812;2023-05-09T09:59:22;17.30;99.90
52919;DHT22;38793;52.690;6.812;2023-05-09T10:02:03;17.40;99.90
52919;DHT22;38793;52.690;6.812;2023-05-09T10:04:36;17.40;99.90
52919;DHT22;38793;52.690;6.812;2023-05-09T10:07:04;17.50;99.90
52919;DHT22;38793;52.690;6.812;2023-05-09T10:09:32;17.50;99.90
52919;DHT22;38793;52.690;6.812;2023-05-09T10:12:02;17.60;99.90
52919;DHT22;38793;52.690;6.812;2023-05-09T10:14:30;17.70;99.90
52919;DHT22;38793;52.690;6.812;2023-05-09T10:16:57;17.80;99.90
52919;DHT22;38793;52.690;6.812;2023-05-09T10:19:26;17.80;99.90
52919;DHT22;38793;52.690;6.812;2023-05-09T10:21:56;17.80;99.90
52919;DHT22;38793;52.690;6.812;2023-05-09T10:24:27;17.80;99.90
52919;DHT22;38793;52.690;6.812;2023-05-09T10:27:01;17.80;99.90
52919;DHT22;38793;52.690;6.812;2023-05-09T10:29:29;17.80;99.90
52919;DHT22;38793;52.690;6.812;2023-05-09T10:31:59;17.80;99.90
52919;DHT22;38793;52.690;6.812;2023-05-09T10:34:30;17.80;99.90
52919;DHT22;38793;52.690;6.812;2023-05-09T10:36:58;17.80;99.90
52919;DHT22;38793;52.690;6.812;2023-05-09T10:39:26;17.80;99.90
52919;DHT22;38793;52.690;6.812;2023-05-09T10:41:52;17.90;99.90
52919;DHT22;38793;52.690;6.812;2023-05-09T10:44:20;18.10;99.90
52919;DHT22;38793;52.690;6.812;2023-05-09T10:46:47;18.30;99.90
52919;DHT22;38793;52.690;6.812;2023-05-09T10:49:13;18.60;99.90
52919;DHT22;38793;52.690;6.812;2023-05-09T10:51:39;18.70;99.90
52919;DHT22;38793;52.690;6.812;2023-05-09T10:54:13;18.90;99.90
52919;DHT22;38793;52.690;6.812;2023-05-09T10:56:40;19.10;99.90
52919;DHT22;38793;52.690;6.812;2023-05-09T10:59:05;19.10;99.90
52919;DHT22;38793;52.690;6.812;2023-05-09T11:01:36;19.30;99.90
52919;DHT22;38793;52.690;6.812;2023-05-09T11:04:10;19.30;99.90
52919;DHT22;38793;52.690;6.812;2023-05-09T11:12:13;19.40;99.90
52919;DHT22;38793;52.690;6.812;2023-05-09T11:17:29;19.30;99.90
52919;DHT22;38793;52.690;6.812;2023-05-09T11:19:58;19.20;99.90
52919;DHT22;38793;52.690;6.812;2023-05-09T11:22:28;19.10;99.90
52919;DHT22;38793;52.690;6.812;2023-05-09T11:25:03;19.00;99.90
52919;DHT22;38793;52.690;6.812;2023-05-09T11:27:40;18.90;99.90
52919;DHT22;38793;52.690;6.812;2023-05-09T11:30:09;18.80;99.90
52919;DHT22;38793;52.690;6.812;2023-05-09T11:35:18;18.60;99.90
52919;DHT22;38793;52.690;6.812;2023-05-09T11:38:00;18.60;99.90
52919;DHT22;38793;52.690;6.812;2023-05-09T11:40:28;18.60;99.90
52919;DHT22;38793;52.690;6.812;2023-05-09T11:42:55;18.60;99.90
52919;DHT22;38793;52.690;6.812;2023-05-09T11:45:23;18.50;99.90
52919;DHT22;38793;52.690;6.812;2023-05-09T11:47:50;18.50;99.90
52919;DHT22;38793;52.690;6.812;2023-05-09T11:50:16;18.50;99.90
52919;DHT22;38793;52.690;6.812;2023-05-09T11:52:44;18.40;99.90
52919;DHT22;38793;52.690;6.812;2023-05-09T11:55:13;18.40;99.90
52919;DHT22;38793;52.690;6.812;2023-05-09T11:57:44;18.40;99.90
52919;DHT22;38793;52.690;6.812;2023-05-09T12:00:11;18.50;99.90
52919;DHT22;38793;52.690;6.812;2023-05-09T12:02:37;18.50;99.90
52919;DHT22;38793;52.690;6.812;2023-05-09T12:05:11;18.50;99.90
52919;DHT22;38793;52.690;6.812;2023-05-09T12:07:37;18.50;99.90
52919;DHT22;38793;52.690;6.812;2023-05-09T12:10:24;18.60;99.90
52919;DHT22;38793;52.690;6.812;2023-05-09T12:12:51;18.60;99.90
52919;DHT22;38793;52.690;6.812;2023-05-09T12:15:17;18.70;99.90
52919;DHT22;38793;52.690;6.812;2023-05-09T12:17:44;18.80;99.90
52919;DHT22;38793;52.690;6.812;2023-05-09T12:20:11;18.80;99.90
52919;DHT22;38793;52.690;6.812;2023-05-09T12:22:37;19.00;99.90
52919;DHT22;38793;52.690;6.812;2023-05-09T12:25:07;19.10;99.90
52919;DHT22;38793;52.690;6.812;2023-05-09T12:27:35;19.10;99.90
52919;DHT22;38793;52.690;6.812;2023-05-09T12:30:03;19.20;99.90
52919;DHT22;38793;52.690;6.812;2023-05-09T12:32:33;19.20;99.90
52919;DHT22;38793;52.690;6.812;2023-05-09T12:34:59;19.20;99.90
52919;DHT22;38793;52.690;6.812;2023-05-09T12:37:25;19.30;99.90
52919;DHT22;38793;52.690;6.812;2023-05-09T12:40:05;19.30;99.90
52919;DHT22;38793;52.690;6.812;2023-05-09T12:42:32;19.30;99.90
52919;DHT22;38793;52.690;6.812;2023-05-09T12:44:58;19.30;99.90
52919;DHT22;38793;52.690;6.812;2023-05-09T12:47:28;19.40;99.90
52919;DHT22;38793;52.690;6.812;2023-05-09T12:49:57;19.40;99.90
52919;DHT22;38793;52.690;6.812;2023-05-09T12:52:24;19.40;99.90
52919;DHT22;38793;52.690;6.812;2023-05-09T12:54:50;19.40;99.90
52919;DHT22;38793;52.690;6.812;2023-05-09T12:57:24;19.40;99.90
52919;DHT22;38793;52.690;6.812;2023-05-09T12:59:57;19.30;99.90
52919;DHT22;38793;52.690;6.812;2023-05-09T13:02:25;19.30;99.90
52919;DHT22;38793;52.690;6.812;2023-05-09T13:05:05;19.20;99.90
52919;DHT22;38793;52.690;6.812;2023-05-09T13:07:41;19.20;99.90
52919;DHT22;38793;52.690;6.812;2023-05-09T13:10:14;19.10;99.90
52919;DHT22;38793;52.690;6.812;2023-05-09T13:12:41;19.00;99.90
52919;DHT22;38793;52.690;6.812;2023-05-09T13:15:13;19.00;99.90
52919;DHT22;38793;52.690;6.812;2023-05-09T13:17:41;18.90;99.90
52919;DHT22;38793;52.690;6.812;2023-05-09T13:20:07;18.80;99.90
52919;DHT22;38793;52.690;6.812;2023-05-09T13:22:33;18.80;99.90
52919;DHT22;38793;52.690;6.812;2023-05-09T13:24:59;18.70;99.90
52919;DHT22;38793;52.690;6.812;2023-05-09T13:27:25;18.60;99.90
52919;DHT22;38793;52.690;6.812;2023-05-09T13:29:52;18.70;99.90
52919;DHT22;38793;52.690;6.812;2023-05-09T13:32:18;18.70;99.90
52919;DHT22;38793;52.690;6.812;2023-05-09T13:34:44;18.80;99.90
52919;DHT22;38793;52.690;6.812;2023-05-09T13:37:09;18.90;99.90
52919;DHT22;38793;52.690;6.812;2023-05-09T13:39:35;19.00;99.90
52919;DHT22;38793;52.690;6.812;2023-05-09T13:42:00;19.00;99.90
52919;DHT22;38793;52.690;6.812;2023-05-09T13:44:26;19.10;99.90
52919;DHT22;38793;52.690;6.812;2023-05-09T13:46:53;19.10;99.90
52919;DHT22;38793;52.690;6.812;2023-05-09T13:49:19;19.10;99.90
52919;DHT22;38793;52.690;6.812;2023-05-09T13:51:44;19.00;99.90
52919;DHT22;38793;52.690;6.812;2023-05-09T13:54:10;19.00;99.90
52919;DHT22;38793;52.690;6.812;2023-05-09T13:56:41;19.00;99.90
52919;DHT22;38793;52.690;6.812;2023-05-09T13:59:07;19.00;99.90
52919;DHT22;38793;52.690;6.812;2023-05-09T14:01:33;19.00;99.90
52919;DHT22;38793;52.690;6.812;2023-05-09T14:04:00;18.90;99.90
52919;DHT22;38793;52.690;6.812;2023-05-09T14:06:26;18.90;99.90
52919;DHT22;38793;52.690;6.812;2023-05-09T14:08:54;18.90;99.90
52919;DHT22;38793;52.690;6.812;2023-05-09T14:11:19;18.80;99.90
52919;DHT22;38793;52.690;6.812;2023-05-09T14:13:45;18.80;99.90
52919;DHT22;38793;52.690;6.812;2023-05-09T14:16:11;18.70;99.90
52919;DHT22;38793;52.690;6.812;2023-05-09T14:18:37;18.60;99.90
52919;DHT22;38793;52.690;6.812;2023-05-09T14:21:02;18.60;99.90
52919;DHT22;38793;52.690;6.812;2023-05-09T14:23:28;18.60;99.90
52919;DHT22;38793;52.690;6.812;2023-05-09T14:25:53;18.60;99.90
52919;DHT22;38793;52.690;6.812;2023-05-09T14:28:19;18.50;99.90
52919;DHT22;38793;52.690;6.812;2023-05-09T14:30:45;18.50;99.90
52919;DHT22;38793;52.690;6.812;2023-05-09T14:33:10;18.50;99.90
52919;DHT22;38793;52.690;6.812;2023-05-09T14:35:36;18.40;99.90
52919;DHT22;38793;52.690;6.812;2023-05-09T14:38:01;18.40;99.90
52919;DHT22;38793;52.690;6.812;2023-05-09T14:40:27;18.40;99.90
52919;DHT22;38793;52.690;6.812;2023-05-09T14:43:00;18.40;99.90
52919;DHT22;38793;52.690;6.812;2023-05-09T14:45:29;18.30;99.90
52919;DHT22;38793;52.690;6.812;2023-05-09T14:47:55;18.30;99.90
52919;DHT22;38793;52.690;6.812;2023-05-09T14:50:21;18.30;99.90
52919;DHT22;38793;52.690;6.812;2023-05-09T14:52:48;18.30;99.90
52919;DHT22;38793;52.690;6.812;2023-05-09T14:55:18;18.20;99.90
52919;DHT22;38793;52.690;6.812;2023-05-09T14:57:44;18.10;99.90
52919;DHT22;38793;52.690;6.812;2023-05-09T15:00:11;18.10;99.90
52919;DHT22;38793;52.690;6.812;2023-05-09T15:02:38;18.00;99.90
52919;DHT22;38793;52.690;6.812;2023-05-09T15:05:04;18.00;99.90
52919;DHT22;38793;52.690;6.812;2023-05-09T15:07:30;17.90;99.90
52919;DHT22;38793;52.690;6.812;2023-05-09T15:09:56;17.80;99.90
52919;DHT22;38793;52.690;6.812;2023-05-09T15:12:21;17.80;99.90
52919;DHT22;38793;52.690;6.812;2023-05-09T15:14:47;17.80;99.90
52919;DHT22;38793;52.690;6.812;2023-05-09T15:17:13;17.70;99.90
52919;DHT22;38793;52.690;6.812;2023-05-09T15:19:38;17.70;99.90
52919;DHT22;38793;52.690;6.812;2023-05-09T15:22:06;17.60;99.90
52919;DHT22;38793;52.690;6.812;2023-05-09T15:24:33;17.60;99.90
52919;DHT22;38793;52.690;6.812;2023-05-09T15:26:59;17.50;99.90
52919;DHT22;38793;52.690;6.812;2023-05-09T15:29:24;17.50;99.90
52919;DHT22;38793;52.690;6.812;2023-05-09T15:31:50;17.40;99.90
52919;DHT22;38793;52.690;6.812;2023-05-09T15:34:15;17.40;99.90
52919;DHT22;38793;52.690;6.812;2023-05-09T15:36:41;17.40;99.90
52919;DHT22;38793;52.690;6.812;2023-05-09T15:39:07;17.30;99.90
52919;DHT22;38793;52.690;6.812;2023-05-09T15:41:32;17.30;99.90
52919;DHT22;38793;52.690;6.812;2023-05-09T15:43:58;17.30;99.90
52919;DHT22;38793;52.690;6.812;2023-05-09T15:46:24;17.20;99.90
52919;DHT22;38793;52.690;6.812;2023-05-09T15:48:50;17.30;99.90
52919;DHT22;38793;52.690;6.812;2023-05-09T15:51:15;17.20;99.90
52919;DHT22;38793;52.690;6.812;2023-05-09T15:53:41;17.20;99.90
52919;DHT22;38793;52.690;6.812;2023-05-09T15:56:07;17.20;99.90
52919;DHT22;38793;52.690;6.812;2023-05-09T15:58:33;17.10;99.90